sensor_id;sensor_type;location;lat;lon;timestamp;temperature;humidity
68804;SHT31;55787;52.678;13.314;2023-05-21T00:00:52;13.82;88.75
68804;SHT31;55787;52.678;13.314;2023-05-21T00:03:19;13.79;88.96
68804;SHT31;55787;52.678;13.314;2023-05-21T00:05:46;13.73;89.21
68804;SHT31;55787;52.678;13.314;2023-05-21T00:08:15;13.72;89.58
68804;SHT31;55787;52.678;13.314;2023-05-21T00:10:42;13.62;89.45
68804;SHT31;55787;52.678;13.314;2023-05-21T00:13:09;13.58;89.78
68804;SHT31;55787;52.678;13.314;2023-05-21T00:15:36;13.53;89.94
68804;SHT31;55787;52.678;13.314;2023-05-21T00:18:03;13.53;90.12
68804;SHT31;55787;52.678;13.314;2023-05-21T00:20:30;13.51;90.33
68804;SHT31;55787;52.678;13.314;2023-05-21T00:23:01;13.52;90.48
68804;SHT31;55787;52.678;13.314;2023-05-21T00:25:28;13.56;90.40
68804;SHT31;55787;52.678;13.314;2023-05-21T00:27:55;13.61;90.70
68804;SHT31;55787;52.678;13.314;2023-05-21T00:30:22;13.58;90.32
68804;SHT31;55787;52.678;13.314;2023-05-21T00:32:48;13.56;90.56
68804;SHT31;55787;52.678;13.314;2023-05-21T00:35:16;13.58;90.41
68804;SHT31;55787;52.678;13.314;2023-05-21T00:37:43;13.51;90.54
68804;SHT31;55787;52.678;13.314;2023-05-21T00:40:11;13.45;90.64
68804;SHT31;55787;52.678;13.314;2023-05-21T00:42:38;13.39;90.89
68804;SHT31;55787;52.678;13.314;2023-05-21T00:45:06;13.38;90.89
68804;SHT31;55787;52.678;13.314;2023-05-21T00:47:34;13.29;90.99
68804;SHT31;55787;52.678;13.314;2023-05-21T00:50:02;13.25;90.92
68804;SHT31;55787;52.678;13.314;2023-05-21T00:52:29;13.19;91.30
68804;SHT31;55787;52.678;13.314;2023-05-21T00:54:56;13.14;91.34
68804;SHT31;55787;52.678;13.314;2023-05-21T00:57:24;13.11;92.03
68804;SHT31;55787;52.678;13.314;2023-05-21T00:59:53;13.07;91.75
68804;SHT31;55787;52.678;13.314;2023-05-21T01:02:20;13.02;91.79
68804;SHT31;55787;52.678;13.314;2023-05-21T01:04:52;12.98;91.94
68804;SHT31;55787;52.678;13.314;2023-05-21T01:07:19;12.95;92.19
68804;SHT31;55787;52.678;13.314;2023-05-21T01:09:47;12.94;92.10
68804;SHT31;55787;52.678;13.314;2023-05-21T01:12:14;12.91;92.29
68804;SHT31;55787;52.678;13.314;2023-05-21T01:14:41;12.87;92.77
68804;SHT31;55787;52.678;13.314;2023-05-21T01:17:08;12.87;92.72
68804;SHT31;55787;52.678;13.314;2023-05-21T01:19:36;12.81;92.62
68804;SHT31;55787;52.678;13.314;2023-05-21T01:22:05;12.80;92.87
68804;SHT31;55787;52.678;13.314;2023-05-21T01:24:32;12.77;92.97
68804;SHT31;55787;52.678;13.314;2023-05-21T01:27:00;12.74;93.06
68804;SHT31;55787;52.678;13.314;2023-05-21T01:29:28;12.73;93.15
68804;SHT31;55787;52.678;13.314;2023-05-21T01:32:15;12.68;93.12
68804;SHT31;55787;52.678;13.314;2023-05-21T01:37:34;12.63;93.40
68804;SHT31;55787;52.678;13.314;2023-05-21T01:40:15;12.54;93.34
68804;SHT31;55787;52.678;13.314;2023-05-21T01:42:43;12.53;93.42
68804;SHT31;55787;52.678;13.314;2023-05-21T01:45:15;12.54;93.75
68804;SHT31;55787;52.678;13.314;2023-05-21T01:47:48;12.56;94.03
68804;SHT31;55787;52.678;13.314;2023-05-21T01:50:17;12.53;94.27
68804;SHT31;55787;52.678;13.314;2023-05-21T01:52:48;12.53;94.39
68804;SHT31;55787;52.678;13.314;2023-05-21T01:55:17;12.50;94.45
68804;SHT31;55787;52.678;13.314;2023-05-21T01:57:43;12.49;94.51
68804;SHT31;55787;52.678;13.314;2023-05-21T02:00:11;12.49;94.85
68804;SHT31;55787;52.678;13.314;2023-05-21T02:02:38;12.47;94.85
68804;SHT31;55787;52.678;13.314;2023-05-21T02:05:05;12.47;95.15
68804;SHT31;55787;52.678;13.314;2023-05-21T02:07:32;12.49;95.21
68804;SHT31;55787;52.678;13.314;2023-05-21T02:13:47;12.42;95.31
68804;SHT31;55787;52.678;13.314;2023-05-21T02:16:14;12.42;95.35
68804;SHT31;55787;52.678;13.314;2023-05-21T02:18:41;12.34;95.42
68804;SHT31;55787;52.678;13.314;2023-05-21T02:21:12;12.33;95.22
68804;SHT31;55787;52.678;13.314;2023-05-21T02:23:39;12.29;95.46
68804;SHT31;55787;52.678;13.314;2023-05-21T02:26:07;12.23;95.51
68804;SHT31;55787;52.678;13.314;2023-05-21T02:28:33;12.22;95.79
68804;SHT31;55787;52.678;13.314;2023-05-21T02:31:01;12.22;95.97
68804;SHT31;55787;52.678;13.314;2023-05-21T02:33:28;12.21;96.15
68804;SHT31;55787;52.678;13.314;2023-05-21T02:35:55;12.22;96.23
68804;SHT31;55787;52.678;13.314;2023-05-21T02:38:21;12.19;96.25
68804;SHT31;55787;52.678;13.314;2023-05-21T02:40:49;12.18;96.42
68804;SHT31;55787;52.678;13.314;2023-05-21T02:43:19;12.16;96.48
68804;SHT31;55787;52.678;13.314;2023-05-21T02:45:45;12.18;96.56
68804;SHT31;55787;52.678;13.314;2023-05-21T02:48:13;12.15;96.57
68804;SHT31;55787;52.678;13.314;2023-05-21T02:50:39;12.16;97.26
68804;SHT31;55787;52.678;13.314;2023-05-21T02:53:06;12.13;96.89
68804;SHT31;55787;52.678;13.314;2023-05-21T02:55:33;12.09;96.81
68804;SHT31;55787;52.678;13.314;2023-05-21T02:58:00;12.03;96.91
68804;SHT31;55787;52.678;13.314;2023-05-21T03:00:27;12.05;97.41
68804;SHT31;55787;52.678;13.314;2023-05-21T03:02:53;12.02;97.23
68804;SHT31;55787;52.678;13.314;2023-05-21T03:05:20;12.02;97.25
68804;SHT31;55787;52.678;13.314;2023-05-21T03:07:47;12.01;97.32
68804;SHT31;55787;52.678;13.314;2023-05-21T03:10:14;12.03;97.54
68804;SHT31;55787;52.678;13.314;2023-05-21T03:12:41;12.03;97.53
68804;SHT31;55787;52.678;13.314;2023-05-21T03:15:08;12.02;97.51
68804;SHT31;55787;52.678;13.314;2023-05-21T03:17:35;12.02;97.95
68804;SHT31;55787;52.678;13.314;2023-05-21T03:20:01;12.02;97.83
68804;SHT31;55787;52.678;13.314;2023-05-21T03:22:30;12.01;97.78
68804;SHT31;55787;52.678;13.314;2023-05-21T03:24:56;11.99;97.95
68804;SHT31;55787;52.678;13.314;2023-05-21T03:27:23;11.98;97.90
68804;SHT31;55787;52.678;13.314;2023-05-21T03:29:50;11.98;98.01
68804;SHT31;55787;52.678;13.314;2023-05-21T03:32:17;12.02;98.20
68804;SHT31;55787;52.678;13.314;2023-05-21T03:34:44;11.99;97.82
68804;SHT31;55787;52.678;13.314;2023-05-21T03:37:10;11.96;97.85
68804;SHT31;55787;52.678;13.314;2023-05-21T03:39:37;12.01;97.99
68804;SHT31;55787;52.678;13.314;2023-05-21T03:42:04;12.01;98.01
68804;SHT31;55787;52.678;13.314;2023-05-21T03:44:31;12.03;98.03
68804;SHT31;55787;52.678;13.314;2023-05-21T03:46:58;12.06;98.19
68804;SHT31;55787;52.678;13.314;2023-05-21T03:49:24;12.09;98.31
68804;SHT31;55787;52.678;13.314;2023-05-21T03:51:52;12.15;98.33
68804;SHT31;55787;52.678;13.314;2023-05-21T03:54:19;12.23;98.37
68804;SHT31;55787;52.678;13.314;2023-05-21T03:56:46;12.30;98.40
68804;SHT31;55787;52.678;13.314;2023-05-21T03:59:12;12.40;98.52
68804;SHT31;55787;52.678;13.314;2023-05-21T04:01:39;12.49;98.43
68804;SHT31;55787;52.678;13.314;2023-05-21T04:04:06;12.50;98.38
68804;SHT31;55787;52.678;13.314;2023-05-21T04:06:32;12.53;98.46
68804;SHT31;55787;52.678;13.314;2023-05-21T04:08:59;12.60;98.48
68804;SHT31;55787;52.678;13.314;2023-05-21T04:11:26;12.61;98.37
68804;SHT31;55787;52.678;13.314;2023-05-21T04:13:53;12.63;98.35
68804;SHT31;55787;52.678;13.314;2023-05-21T04:16:19;12.67;98.29
68804;SHT31;55787;52.678;13.314;2023-05-21T04:18:46;12.74;98.31
68804;SHT31;55787;52.678;13.314;2023-05-21T04:21:13;12.77;98.16
68804;SHT31;55787;52.678;13.314;2023-05-21T04:23:40;12.84;98.28
68804;SHT31;55787;52.678;13.314;2023-05-21T04:26:06;12.94;98.20
68804;SHT31;55787;52.678;13.314;2023-05-21T04:28:33;13.02;98.02
68804;SHT31;55787;52.678;13.314;2023-05-21T04:31:01;13.16;97.89
68804;SHT31;55787;52.678;13.314;2023-05-21T04:33:27;13.25;97.70
68804;SHT31;55787;52.678;13.314;2023-05-21T04:35:54;13.36;97.36
68804;SHT31;55787;52.678;13.314;2023-05-21T04:38:20;13.46;97.14
68804;SHT31;55787;52.678;13.314;2023-05-21T04:40:50;13.56;96.91
68804;SHT31;55787;52.678;13.314;2023-05-21T04:43:18;13.66;96.62
68804;SHT31;55787;52.678;13.314;2023-05-21T04:45:52;13.80;96.36
68804;SHT31;55787;52.678;13.314;2023-05-21T04:48:23;14.00;95.57
68804;SHT31;55787;52.678;13.314;2023-05-21T04:50:50;14.09;95.34
68804;SHT31;55787;52.678;13.314;2023-05-21T04:53:18;14.20;94.98
68804;SHT31;55787;52.678;13.314;2023-05-21T04:55:46;14.37;94.66
68804;SHT31;55787;52.678;13.314;2023-05-21T04:58:12;14.52;93.94
68804;SHT31;55787;52.678;13.314;2023-05-21T05:00:40;14.69;93.22
68804;SHT31;55787;52.678;13.314;2023-05-21T05:03:07;14.85;92.82
68804;SHT31;55787;52.678;13.314;2023-05-21T05:05:34;15.00;92.50
68804;SHT31;55787;52.678;13.314;2023-05-21T05:08:02;15.18;91.69
68804;SHT31;55787;52.678;13.314;2023-05-21T05:10:29;15.36;90.98
68804;SHT31;55787;52.678;13.314;2023-05-21T05:12:56;15.57;90.25
68804;SHT31;55787;52.678;13.314;2023-05-21T05:15:22;15.85;88.72
68804;SHT31;55787;52.678;13.314;2023-05-21T05:17:49;16.06;87.69
68804;SHT31;55787;52.678;13.314;2023-05-21T05:20:16;16.25;87.24
68804;SHT31;55787;52.678;13.314;2023-05-21T05:22:43;16.48;86.28
68804;SHT31;55787;52.678;13.314;2023-05-21T05:25:10;16.69;85.71
68804;SHT31;55787;52.678;13.314;2023-05-21T05:27:36;16.90;84.75
68804;SHT31;55787;52.678;13.314;2023-05-21T05:30:04;17.12;84.19
68804;SHT31;55787;52.678;13.314;2023-05-21T05:32:31;17.32;82.89
68804;SHT31;55787;52.678;13.314;2023-05-21T05:34:58;17.55;82.46
68804;SHT31;55787;52.678;13.314;2023-05-21T05:37:27;17.71;81.40
68804;SHT31;55787;52.678;13.314;2023-05-21T05:39:54;17.85;80.94
68804;SHT31;55787;52.678;13.314;2023-05-21T05:42:21;17.97;80.91
68804;SHT31;55787;52.678;13.314;2023-05-21T05:44:48;18.16;79.80
68804;SHT31;55787;52.678;13.314;2023-05-21T05:47:15;18.26;78.96
68804;SHT31;55787;52.678;13.314;2023-05-21T05:49:41;18.34;79.16
68804;SHT31;55787;52.678;13.314;2023-05-21T05:52:08;18.40;78.59
68804;SHT31;55787;52.678;13.314;2023-05-21T05:54:35;18.68;78.76
68804;SHT31;55787;52.678;13.314;2023-05-21T05:57:02;18.78;77.17
68804;SHT31;55787;52.678;13.314;2023-05-21T05:59:28;19.01;76.63
68804;SHT31;55787;52.678;13.314;2023-05-21T06:01:56;19.20;75.75
68804;SHT31;55787;52.678;13.314;2023-05-21T06:04:22;19.88;73.74
68804;SHT31;55787;52.678;13.314;2023-05-21T06:06:49;20.38;71.94
68804;SHT31;55787;52.678;13.314;2023-05-21T06:09:16;20.75;70.87
68804;SHT31;55787;52.678;13.314;2023-05-21T06:11:42;21.14;70.10
68804;SHT31;55787;52.678;13.314;2023-05-21T06:14:09;21.51;67.95
68804;SHT31;55787;52.678;13.314;2023-05-21T06:16:36;21.65;67.93
68804;SHT31;55787;52.678;13.314;2023-05-21T06:19:02;21.54;66.84
68804;SHT31;55787;52.678;13.314;2023-05-21T06:21:29;22.00;66.14
68804;SHT31;55787;52.678;13.314;2023-05-21T06:23:56;22.32;65.98
68804;SHT31;55787;52.678;13.314;2023-05-21T06:26:23;22.27;65.85
68804;SHT31;55787;52.678;13.314;2023-05-21T06:28:49;22.08;65.81
68804;SHT31;55787;52.678;13.314;2023-05-21T06:31:16;22.16;64.93
68804;SHT31;55787;52.678;13.314;2023-05-21T06:33:43;21.78;65.90
68804;SHT31;55787;52.678;13.314;2023-05-21T06:36:10;21.28;67.97
68804;SHT31;55787;52.678;13.314;2023-05-21T06:38:36;20.96;68.51
68804;SHT31;55787;52.678;13.314;2023-05-21T06:41:03;20.83;70.45
68804;SHT31;55787;52.678;13.314;2023-05-21T06:43:30;20.79;70.37
68804;SHT31;55787;52.678;13.314;2023-05-21T06:45:56;20.80;70.48
68804;SHT31;55787;52.678;13.314;2023-05-21T06:48:24;20.86;70.16
68804;SHT31;55787;52.678;13.314;2023-05-21T06:50:50;20.91;68.97
68804;SHT31;55787;52.678;13.314;2023-05-21T06:53:17;21.10;68.51
68804;SHT31;55787;52.678;13.314;2023-05-21T06:55:44;21.20;67.87
68804;SHT31;55787;52.678;13.314;2023-05-21T06:58:11;21.18;68.49
68804;SHT31;55787;52.678;13.314;2023-05-21T07:00:38;20.99;69.32
68804;SHT31;55787;52.678;13.314;2023-05-21T07:03:04;20.90;68.53
68804;SHT31;55787;52.678;13.314;2023-05-21T07:05:31;20.94;69.56
68804;SHT31;55787;52.678;13.314;2023-05-21T07:07:58;21.08;68.72
68804;SHT31;55787;52.678;13.314;2023-05-21T07:10:24;21.18;66.68
68804;SHT31;55787;52.678;13.314;2023-05-21T07:12:51;21.34;67.67
68804;SHT31;55787;52.678;13.314;2023-05-21T07:15:18;21.62;66.69
68804;SHT31;55787;52.678;13.314;2023-05-21T07:17:44;21.99;65.98
68804;SHT31;55787;52.678;13.314;2023-05-21T07:20:12;22.50;65.27
68804;SHT31;55787;52.678;13.314;2023-05-21T07:22:39;22.84;63.57
68804;SHT31;55787;52.678;13.314;2023-05-21T07:25:07;23.07;64.18
68804;SHT31;55787;52.678;13.314;2023-05-21T07:27:34;22.98;63.28
68804;SHT31;55787;52.678;13.314;2023-05-21T07:30:01;23.15;62.62
68804;SHT31;55787;52.678;13.314;2023-05-21T07:32:28;23.11;62.90
68804;SHT31;55787;52.678;13.314;2023-05-21T07:34:55;23.26;61.71
68804;SHT31;55787;52.678;13.314;2023-05-21T07:37:22;23.29;61.20
68804;SHT31;55787;52.678;13.314;2023-05-21T07:39:48;23.35;61.25
68804;SHT31;55787;52.678;13.314;2023-05-21T07:42:15;23.48;61.79
68804;SHT31;55787;52.678;13.314;2023-05-21T07:44:42;23.66;60.21
68804;SHT31;55787;52.678;13.314;2023-05-21T07:47:08;23.60;61.51
68804;SHT31;55787;52.678;13.314;2023-05-21T07:49:35;23.55;59.72
68804;SHT31;55787;52.678;13.314;2023-05-21T07:52:02;23.79;59.71
68804;SHT31;55787;52.678;13.314;2023-05-21T07:54:28;24.22;58.59
68804;SHT31;55787;52.678;13.314;2023-05-21T07:56:55;24.79;58.20
68804;SHT31;55787;52.678;13.314;2023-05-21T07:59:22;25.92;54.01
68804;SHT31;55787;52.678;13.314;2023-05-21T08:01:48;26.52;52.76
68804;SHT31;55787;52.678;13.314;2023-05-21T08:04:15;27.62;51.13
68804;SHT31;55787;52.678;13.314;2023-05-21T08:06:42;28.04;49.88
68804;SHT31;55787;52.678;13.314;2023-05-21T08:09:09;28.92;47.52
68804;SHT31;55787;52.678;13.314;2023-05-21T08:11:37;28.75;46.15
68804;SHT31;55787;52.678;13.314;2023-05-21T08:14:04;29.30;46.93
68804;SHT31;55787;52.678;13.314;2023-05-21T08:16:31;29.90;45.68
68804;SHT31;55787;52.678;13.314;2023-05-21T08:18:57;30.65;43.86
68804;SHT31;55787;52.678;13.314;2023-05-21T08:21:24;29.18;44.43
68804;SHT31;55787;52.678;13.314;2023-05-21T08:23:51;29.66;44.26
68804;SHT31;55787;52.678;13.314;2023-05-21T08:26:18;30.25;43.50
68804;SHT31;55787;52.678;13.314;2023-05-21T08:28:45;30.35;44.43
68804;SHT31;55787;52.678;13.314;2023-05-21T08:31:11;31.41;41.80
68804;SHT31;55787;52.678;13.314;2023-05-21T08:33:38;31.34;40.71
68804;SHT31;55787;52.678;13.314;2023-05-21T08:36:06;30.15;42.15
68804;SHT31;55787;52.678;13.314;2023-05-21T08:38:33;29.98;43.22
68804;SHT31;55787;52.678;13.314;2023-05-21T08:41:00;30.43;42.12
68804;SHT31;55787;52.678;13.314;2023-05-21T08:43:27;30.63;40.85
68804;SHT31;55787;52.678;13.314;2023-05-21T08:45:56;31.65;40.74
68804;SHT31;55787;52.678;13.314;2023-05-21T08:48:25;32.26;38.52
68804;SHT31;55787;52.678;13.314;2023-05-21T08:50:53;32.37;38.91
68804;SHT31;55787;52.678;13.314;2023-05-21T08:53:21;31.96;38.17
68804;SHT31;55787;52.678;13.314;2023-05-21T08:55:55;30.55;40.84
68804;SHT31;55787;52.678;13.314;2023-05-21T08:58:22;30.35;41.16
68804;SHT31;55787;52.678;13.314;2023-05-21T09:00:49;29.88;42.26
68804;SHT31;55787;52.678;13.314;2023-05-21T09:03:16;29.84;42.77
68804;SHT31;55787;52.678;13.314;2023-05-21T09:05:44;30.25;41.62
68804;SHT31;55787;52.678;13.314;2023-05-21T09:08:34;30.22;41.12
68804;SHT31;55787;52.678;13.314;2023-05-21T09:11:01;30.52;40.27
68804;SHT31;55787;52.678;13.314;2023-05-21T09:13:31;30.04;41.28
68804;SHT31;55787;52.678;13.314;2023-05-21T09:15:58;30.10;41.87
68804;SHT31;55787;52.678;13.314;2023-05-21T09:18:25;29.97;41.70
68804;SHT31;55787;52.678;13.314;2023-05-21T09:20:54;29.60;41.58
68804;SHT31;55787;52.678;13.314;2023-05-21T09:23:22;29.67;41.74
68804;SHT31;55787;52.678;13.314;2023-05-21T09:25:48;30.27;41.82
68804;SHT31;55787;52.678;13.314;2023-05-21T09:28:18;31.13;40.22
68804;SHT31;55787;52.678;13.314;2023-05-21T09:30:51;31.84;38.94
68804;SHT31;55787;52.678;13.314;2023-05-21T09:33:26;32.44;37.65
68804;SHT31;55787;52.678;13.314;2023-05-21T09:35:55;32.67;37.99
68804;SHT31;55787;52.678;13.314;2023-05-21T09:38:22;33.19;36.15
68804;SHT31;55787;52.678;13.314;2023-05-21T09:40:49;32.87;35.44
68804;SHT31;55787;52.678;13.314;2023-05-21T09:43:16;33.19;36.13
68804;SHT31;55787;52.678;13.314;2023-05-21T09:45:53;33.69;35.56
68804;SHT31;55787;52.678;13.314;2023-05-21T09:51:17;32.71;35.98
68804;SHT31;55787;52.678;13.314;2023-05-21T09:53:52;33.42;36.14
68804;SHT31;55787;52.678;13.314;2023-05-21T09:56:20;33.69;34.84
68804;SHT31;55787;52.678;13.314;2023-05-21T09:58:58;34.03;34.42
68804;SHT31;55787;52.678;13.314;2023-05-21T10:01:26;33.61;34.94
68804;SHT31;55787;52.678;13.314;2023-05-21T10:03:55;33.66;34.61
68804;SHT31;55787;52.678;13.314;2023-05-21T10:06:26;33.68;34.93
68804;SHT31;55787;52.678;13.314;2023-05-21T10:08:55;34.00;35.01
68804;SHT31;55787;52.678;13.314;2023-05-21T10:11:26;33.93;34.22
68804;SHT31;55787;52.678;13.314;2023-05-21T10:14:06;34.05;35.59
68804;SHT31;55787;52.678;13.314;2023-05-21T10:16:34;34.50;34.84
68804;SHT31;55787;52.678;13.314;2023-05-21T10:19:02;34.96;33.35
68804;SHT31;55787;52.678;13.314;2023-05-21T10:21:31;34.46;32.83
68804;SHT31;55787;52.678;13.314;2023-05-21T10:24:00;34.06;33.81
68804;SHT31;55787;52.678;13.314;2023-05-21T10:26:28;34.43;32.99
68804;SHT31;55787;52.678;13.314;2023-05-21T10:28:56;34.33;32.90
68804;SHT31;55787;52.678;13.314;2023-05-21T10:31:26;34.06;34.49
68804;SHT31;55787;52.678;13.314;2023-05-21T10:33:53;34.75;32.96
68804;SHT31;55787;52.678;13.314;2023-05-21T10:36:23;34.63;32.80
68804;SHT31;55787;52.678;13.314;2023-05-21T10:38:49;35.19;33.53
68804;SHT31;55787;52.678;13.314;2023-05-21T10:41:17;35.18;32.36
68804;SHT31;55787;52.678;13.314;2023-05-21T10:44:01;35.29;32.76
68804;SHT31;55787;52.678;13.314;2023-05-21T10:49:49;33.93;33.56
68804;SHT31;55787;52.678;13.314;2023-05-21T10:55:35;32.36;36.46
68804;SHT31;55787;52.678;13.314;2023-05-21T11:01:09;31.81;36.20
68804;SHT31;55787;52.678;13.314;2023-05-21T11:03:36;31.42;36.41
68804;SHT31;55787;52.678;13.314;2023-05-21T11:06:03;31.27;37.98
68804;SHT31;55787;52.678;13.314;2023-05-21T11:08:31;31.21;38.68
68804;SHT31;55787;52.678;13.314;2023-05-21T11:11:03;30.84;39.11
68804;SHT31;55787;52.678;13.314;2023-05-21T11:13:46;30.25;39.17
68804;SHT31;55787;52.678;13.314;2023-05-21T11:16:15;29.96;40.60
68804;SHT31;55787;52.678;13.314;2023-05-21T11:26:57;31.62;38.17
68804;SHT31;55787;52.678;13.314;2023-05-21T11:29:30;32.80;36.39
68804;SHT31;55787;52.678;13.314;2023-05-21T11:31:59;33.31;35.33
68804;SHT31;55787;52.678;13.314;2023-05-21T11:34:47;33.82;34.32
68804;SHT31;55787;52.678;13.314;2023-05-21T11:39:44;33.54;34.06
68804;SHT31;55787;52.678;13.314;2023-05-21T11:42:11;33.44;34.17
68804;SHT31;55787;52.678;13.314;2023-05-21T11:44:46;33.95;34.51
68804;SHT31;55787;52.678;13.314;2023-05-21T11:47:17;34.83;33.69
68804;SHT31;55787;52.678;13.314;2023-05-21T11:49:45;34.57;33.19
68804;SHT31;55787;52.678;13.314;2023-05-21T11:52:12;34.57;33.51
68804;SHT31;55787;52.678;13.314;2023-05-21T11:54:44;34.80;33.14
68804;SHT31;55787;52.678;13.314;2023-05-21T11:57:18;35.06;33.15
68804;SHT31;55787;52.678;13.314;2023-05-21T11:59:45;35.42;32.31
68804;SHT31;55787;52.678;13.314;2023-05-21T12:02:17;35.45;32.31
68804;SHT31;55787;52.678;13.314;2023-05-21T12:04:45;34.44;31.53
68804;SHT31;55787;52.678;13.314;2023-05-21T12:07:15;32.71;33.77
68804;SHT31;55787;52.678;13.314;2023-05-21T12:09:43;31.95;35.10
68804;SHT31;55787;52.678;13.314;2023-05-21T12:12:13;31.54;37.00
68804;SHT31;55787;52.678;13.314;2023-05-21T12:14:43;31.20;37.26
68804;SHT31;55787;52.678;13.314;2023-05-21T12:17:11;30.84;38.92
68804;SHT31;55787;52.678;13.314;2023-05-21T12:19:40;30.99;36.62
68804;SHT31;55787;52.678;13.314;2023-05-21T12:22:07;30.83;36.62
68804;SHT31;55787;52.678;13.314;2023-05-21T12:24:36;30.51;37.12
68804;SHT31;55787;52.678;13.314;2023-05-21T12:27:05;30.65;38.49
68804;SHT31;55787;52.678;13.314;2023-05-21T12:29:36;30.49;37.11
68804;SHT31;55787;52.678;13.314;2023-05-21T12:32:06;30.22;37.03
68804;SHT31;55787;52.678;13.314;2023-05-21T12:37:16;30.68;36.41
68804;SHT31;55787;52.678;13.314;2023-05-21T12:39:44;31.21;35.96
68804;SHT31;55787;52.678;13.314;2023-05-21T12:42:11;31.74;34.90
68804;SHT31;55787;52.678;13.314;2023-05-21T12:44:43;32.08;34.57
68804;SHT31;55787;52.678;13.314;2023-05-21T12:47:10;32.32;34.42
68804;SHT31;55787;52.678;13.314;2023-05-21T12:49:41;33.08;33.51
68804;SHT31;55787;52.678;13.314;2023-05-21T12:52:11;33.18;32.11
68804;SHT31;55787;52.678;13.314;2023-05-21T12:54:45;32.53;33.87
68804;SHT31;55787;52.678;13.314;2023-05-21T12:57:15;33.62;32.80
68804;SHT31;55787;52.678;13.314;2023-05-21T12:59:43;33.85;31.50
68804;SHT31;55787;52.678;13.314;2023-05-21T13:02:15;34.07;33.20
68804;SHT31;55787;52.678;13.314;2023-05-21T13:04:44;33.92;32.53
68804;SHT31;55787;52.678;13.314;2023-05-21T13:07:10;33.78;33.22
68804;SHT31;55787;52.678;13.314;2023-05-21T13:09:37;33.47;32.00
68804;SHT31;55787;52.678;13.314;2023-05-21T13:12:04;33.17;32.51
68804;SHT31;55787;52.678;13.314;2023-05-21T13:14:31;33.14;32.60
68804;SHT31;55787;52.678;13.314;2023-05-21T13:16:58;33.28;31.97
68804;SHT31;55787;52.678;13.314;2023-05-21T13:19:24;33.15;31.85
68804;SHT31;55787;52.678;13.314;2023-05-21T13:21:51;33.17;32.20
68804;SHT31;55787;52.678;13.314;2023-05-21T13:24:18;33.12;32.58
68804;SHT31;55787;52.678;13.314;2023-05-21T13:26:45;32.64;32.91
68804;SHT31;55787;52.678;13.314;2023-05-21T13:29:11;32.22;34.13
68804;SHT31;55787;52.678;13.314;2023-05-21T13:31:40;31.99;34.16
68804;SHT31;55787;52.678;13.314;2023-05-21T13:34:07;31.80;33.47
68804;SHT31;55787;52.678;13.314;2023-05-21T13:36:34;31.64;34.30
68804;SHT31;55787;52.678;13.314;2023-05-21T13:39:01;30.87;35.35
68804;SHT31;55787;52.678;13.314;2023-05-21T13:41:28;30.97;36.30
68804;SHT31;55787;52.678;13.314;2023-05-21T13:43:55;30.52;37.41
68804;SHT31;55787;52.678;13.314;2023-05-21T13:46:22;30.61;35.56
68804;SHT31;55787;52.678;13.314;2023-05-21T13:48:49;30.43;36.43
68804;SHT31;55787;52.678;13.314;2023-05-21T13:51:15;30.21;36.58
68804;SHT31;55787;52.678;13.314;2023-05-21T13:54:02;29.85;36.92
68804;SHT31;55787;52.678;13.314;2023-05-21T13:56:29;29.84;37.81
68804;SHT31;55787;52.678;13.314;2023-05-21T13:58:58;29.93;36.58
68804;SHT31;55787;52.678;13.314;2023-05-21T14:01:25;29.93;36.79
68804;SHT31;55787;52.678;13.314;2023-05-21T14:03:52;29.91;36.68
68804;SHT31;55787;52.678;13.314;2023-05-21T14:06:19;29.87;36.70
68804;SHT31;55787;52.678;13.314;2023-05-21T14:08:46;29.94;36.63
68804;SHT31;55787;52.678;13.314;2023-05-21T14:11:13;29.74;37.60
68804;SHT31;55787;52.678;13.314;2023-05-21T14:13:39;29.76;37.06
68804;SHT31;55787;52.678;13.314;2023-05-21T14:16:06;29.66;36.75
68804;SHT31;55787;52.678;13.314;2023-05-21T14:18:33;29.52;36.73
68804;SHT31;55787;52.678;13.314;2023-05-21T14:21:00;29.57;37.75
68804;SHT31;55787;52.678;13.314;2023-05-21T14:23:27;29.54;36.95
68804;SHT31;55787;52.678;13.314;2023-05-21T14:25:54;29.43;37.96
68804;SHT31;55787;52.678;13.314;2023-05-21T14:28:21;29.54;36.67
68804;SHT31;55787;52.678;13.314;2023-05-21T14:30:47;29.32;36.51
68804;SHT31;55787;52.678;13.314;2023-05-21T14:33:14;29.02;37.43
68804;SHT31;55787;52.678;13.314;2023-05-21T14:35:41;29.13;38.87
68804;SHT31;55787;52.678;13.314;2023-05-21T14:38:09;29.16;37.74
68804;SHT31;55787;52.678;13.314;2023-05-21T14:40:36;29.26;39.35
68804;SHT31;55787;52.678;13.314;2023-05-21T14:43:03;29.20;37.69
68804;SHT31;55787;52.678;13.314;2023-05-21T14:45:31;29.27;38.67
68804;SHT31;55787;52.678;13.314;2023-05-21T14:48:01;29.20;37.57
68804;SHT31;55787;52.678;13.314;2023-05-21T14:50:34;29.15;38.77
68804;SHT31;55787;52.678;13.314;2023-05-21T14:53:08;28.96;37.74
68804;SHT31;55787;52.678;13.314;2023-05-21T14:55:36;29.01;38.18
68804;SHT31;55787;52.678;13.314;2023-05-21T14:58:03;28.81;37.60
68804;SHT31;55787;52.678;13.314;2023-05-21T15:00:31;28.92;37.90
68804;SHT31;55787;52.678;13.314;2023-05-21T15:02:59;29.13;38.53
68804;SHT31;55787;52.678;13.314;2023-05-21T15:05:27;29.20;37.01
68804;SHT31;55787;52.678;13.314;2023-05-21T15:07:58;29.26;37.38
68804;SHT31;55787;52.678;13.314;2023-05-21T15:10:26;28.91;37.55
68804;SHT31;55787;52.678;13.314;2023-05-21T15:12:52;28.81;36.91
68804;SHT31;55787;52.678;13.314;2023-05-21T15:15:19;28.57;37.11
68804;SHT31;55787;52.678;13.314;2023-05-21T15:17:47;28.47;37.74
68804;SHT31;55787;52.678;13.314;2023-05-21T15:20:14;28.41;38.55
68804;SHT31;55787;52.678;13.314;2023-05-21T15:22:41;28.43;38.38
68804;SHT31;55787;52.678;13.314;2023-05-21T15:25:09;28.33;38.78
68804;SHT31;55787;52.678;13.314;2023-05-21T15:27:35;28.28;38.83
68804;SHT31;55787;52.678;13.314;2023-05-21T15:30:02;28.30;38.39
68804;SHT31;55787;52.678;13.314;2023-05-21T15:32:30;28.23;38.56
68804;SHT31;55787;52.678;13.314;2023-05-21T15:34:57;28.16;38.85
68804;SHT31;55787;52.678;13.314;2023-05-21T15:37:24;27.95;38.41
68804;SHT31;55787;52.678;13.314;2023-05-21T15:39:51;27.81;39.06
68804;SHT31;55787;52.678;13.314;2023-05-21T15:42:19;27.76;38.96
68804;SHT31;55787;52.678;13.314;2023-05-21T15:44:46;27.58;39.09
68804;SHT31;55787;52.678;13.314;2023-05-21T15:47:13;27.49;39.55
68804;SHT31;55787;52.678;13.314;2023-05-21T15:49:39;27.41;39.52
68804;SHT31;55787;52.678;13.314;2023-05-21T15:52:06;27.38;38.98